地図

経路データ

SID SEASON NUMBER BASIN SUBBASIN NAME ISO_TIME NATURE LAT LON WMO_WIND WMO_PRES WMO_AGENCY TRACK_TYPE DIST2LAND LANDFALL IFLAG USA_AGENCY USA_ATCF_ID USA_LAT USA_LON USA_RECORD USA_STATUS USA_WIND USA_PRES USA_SSHS USA_R34_NE USA_R34_SE USA_R34_SW USA_R34_NW USA_R50_NE USA_R50_SE USA_R50_SW USA_R50_NW USA_R64_NE USA_R64_SE USA_R64_SW USA_R64_NW USA_POCI USA_ROCI USA_RMW USA_EYE TOKYO_LAT TOKYO_LON TOKYO_GRADE TOKYO_WIND TOKYO_PRES TOKYO_R50_DIR TOKYO_R50_LONG TOKYO_R50_SHORT TOKYO_R30_DIR TOKYO_R30_LONG TOKYO_R30_SHORT TOKYO_LAND CMA_LAT CMA_LON CMA_CAT CMA_WIND CMA_PRES HKO_LAT HKO_LON HKO_CAT HKO_WIND HKO_PRES NEWDELHI_LAT NEWDELHI_LON NEWDELHI_GRADE NEWDELHI_WIND NEWDELHI_PRES NEWDELHI_CI NEWDELHI_DP NEWDELHI_POCI REUNION_LAT REUNION_LON REUNION_TYPE REUNION_WIND REUNION_PRES REUNION_TNUM REUNION_CI REUNION_RMW REUNION_R34_NE REUNION_R34_SE REUNION_R34_SW REUNION_R34_NW REUNION_R50_NE REUNION_R50_SE REUNION_R50_SW REUNION_R50_NW REUNION_R64_NE REUNION_R64_SE REUNION_R64_SW REUNION_R64_NW BOM_LAT BOM_LON BOM_TYPE BOM_WIND BOM_PRES BOM_TNUM BOM_CI BOM_RMW BOM_R34_NE BOM_R34_SE BOM_R34_SW BOM_R34_NW BOM_R50_NE BOM_R50_SE BOM_R50_SW BOM_R50_NW BOM_R64_NE BOM_R64_SE BOM_R64_SW BOM_R64_NW BOM_ROCI BOM_POCI BOM_EYE BOM_POS_METHOD BOM_PRES_METHOD NADI_LAT NADI_LON NADI_CAT NADI_WIND NADI_PRES WELLINGTON_LAT WELLINGTON_LON WELLINGTON_WIND WELLINGTON_PRES DS824_LAT DS824_LON DS824_STAGE DS824_WIND DS824_PRES TD9636_LAT TD9636_LON TD9636_STAGE TD9636_WIND TD9636_PRES TD9635_LAT TD9635_LON TD9635_WIND TD9635_PRES TD9635_ROCI NEUMANN_LAT NEUMANN_LON NEUMANN_CLASS NEUMANN_WIND NEUMANN_PRES MLC_LAT MLC_LON MLC_CLASS MLC_WIND MLC_PRES USA_GUST BOM_GUST BOM_GUST_PER REUNION_GUST REUNION_GUST_PER USA_SEAHGT USA_SEARAD_NE USA_SEARAD_SE USA_SEARAD_SW USA_SEARAD_NW STORM_SPEED STORM_DIR
1926014S15123 1926 3 SI WA NOT_NAMED 1926-01-14 01:00:00 NR -15.0000 123.000 998 bom main 153 130 ______O_______ -1 -15.0000 123.000 998 11 108
1926014S15123 1926 3 SI WA NOT_NAMED 1926-01-14 03:00:00 NR -15.1076 123.348 main 130 63 ______P_______ -1 -15.1076 123.348 10 108
1926014S15123 1926 3 SI WA NOT_NAMED 1926-01-14 06:00:00 NR -15.2659 123.861 main 63 22 ______P_______ -1 -15.2659 123.861 10 108
1926014S15123 1926 3 SI WA NOT_NAMED 1926-01-14 09:00:00 NR -15.4179 124.352 main 22 0 ______P_______ -1 -15.4179 124.352 10 108
1926014S15123 1926 3 SI WA NOT_NAMED 1926-01-14 12:00:00 NR -15.5604 124.806 main 0 0 ______P_______ -1 -15.5604 124.806 9 108
1926014S15123 1926 3 SI WA NOT_NAMED 1926-01-14 15:00:00 NR -15.6906 125.209 main 0 0 ______P_______ -1 -15.6906 125.209 8 109
1926014S15123 1926 3 SI WA NOT_NAMED 1926-01-14 18:00:00 NR -15.8057 125.546 main 0 0 ______P_______ -1 -15.8057 125.546 6 110
1926014S15123 1926 3 SI WA NOT_NAMED 1926-01-14 21:00:00 NR -15.9030 125.804 main 0 0 ______P_______ -1 -15.9030 125.804 4 114
1926014S15123 1926 3 SI WA NOT_NAMED 1926-01-15 00:00:00 TS -15.9836 125.955 main 0 0 ______P__O____ -1 -15.9795 125.969 -16.0000 125.900 TC 35 996 3 126
1926014S15123 1926 3 SI WA NOT_NAMED 1926-01-15 01:00:00 TS -16.0018 125.944 996 bom main 0 0 ______O__P____ -1 -16.0000 126.000 996 -16.0054 125.833 TC 2 238
1926014S15123 1926 3 SI WA NOT_NAMED 1926-01-15 03:00:00 TS -16.0257 125.887 main 0 0 ______P__P____ -1 -16.0330 126.027 -16.0159 125.702 TC 2 256
1926014S15123 1926 3 SI WA NOT_NAMED 1926-01-15 06:00:00 TS -16.0474 125.749 main 0 0 ______P__P____ -1 -16.0646 125.988 -16.0302 125.511 TC 3 263
1926014S15123 1926 3 SI WA NOT_NAMED 1926-01-15 09:00:00 TS -16.0597 125.606 main 0 0 ______P__P____ -1 -16.0782 125.875 -16.0413 125.337 TC 3 267
1926014S15123 1926 3 SI WA NOT_NAMED 1926-01-15 12:00:00 TS -16.0626 125.450 main 0 0 ______P__P____ -1 -16.0773 125.712 -16.0479 125.188 TC 3 271
1926014S15123 1926 3 SI WA NOT_NAMED 1926-01-15 15:00:00 TS -16.0571 125.297 main 0 0 ______P__P____ -1 -16.0658 125.523 -16.0484 125.071 TC 3 274
1926014S15123 1926 3 SI WA NOT_NAMED 1926-01-15 18:00:00 TS -16.0445 125.163 main 0 0 ______P__P____ -1 -16.0475 125.330 -16.0416 124.996 TC 2 278
1926014S15123 1926 3 SI WA NOT_NAMED 1926-01-15 21:00:00 TS -16.0261 125.063 main 0 0 ______P__P____ -1 -16.0262 125.158 -16.0259 124.969 TC 1 286
1926014S15123 1926 3 SI WA NOT_NAMED 1926-01-16 00:00:00 TS -16.0029 125.015 main 0 0 ______P__O____ -1 -16.0059 125.029 -16.0000 125.000 TC 35 996 1 297
1926014S15123 1926 3 SI WA NOT_NAMED 1926-01-16 01:00:00 TS -15.9944 125.012 996 bom main 0 0 ______O__P____ -1 -16.0000 125.000 996 -15.9889 125.024 TC 1 61
1926014S15123 1926 3 SI WA NOT_NAMED 1926-01-16 03:00:00 TS -15.9696 125.073 main 0 0 ______P__P____ -1 -15.9754 125.053 -15.9638 125.092 TC 2 70
1926014S15123 1926 3 SI WA NOT_NAMED 1926-01-16 06:00:00 TS -15.9282 125.204 main 0 0 ______P__P____ -1 -15.9333 125.177 -15.9231 125.231 TC 3 74
1926014S15123 1926 3 SI WA NOT_NAMED 1926-01-16 09:00:00 TS -15.8885 125.368 main 0 0 ______P__P____ -1 -15.8916 125.338 -15.8853 125.398 TC 3 78
1926014S15123 1926 3 SI WA NOT_NAMED 1926-01-16 12:00:00 TS -15.8580 125.544 main 0 0 ______P__P____ -1 -15.8582 125.514 -15.8578 125.574 TC 3 82
1926014S15123 1926 3 SI WA NOT_NAMED 1926-01-16 15:00:00 TS -15.8444 125.715 main 0 0 ______P__P____ -1 -15.8408 125.689 -15.8480 125.741 TC 3 90
1926014S15123 1926 3 SI WA NOT_NAMED 1926-01-16 18:00:00 TS -15.8554 125.860 main 0 0 ______P__P____ -1 -15.8473 125.841 -15.8634 125.880 TC 2 103
1926014S15123 1926 3 SI WA NOT_NAMED 1926-01-16 21:00:00 TS -15.8986 125.962 main 0 0 ______P__P____ -1 -15.8857 125.951 -15.9116 125.973 TC 2 133
1926014S15123 1926 3 SI WA NOT_NAMED 1926-01-17 00:00:00 TS -15.9819 126.000 main 0 0 ______P__O____ -1 -15.9638 126.000 -16.0000 126.000 TC 35 996 2 0
1926014S15123 1926 3 SI WA NOT_NAMED 1926-01-17 01:00:00 TS -16.0362 125.987 996 bom main 0 0 ______O__P____ -1 -16.0000 126.000 996 -16.0725 125.975 TC 5 199
1926014S15123 1926 3 SI WA NOT_NAMED 1926-01-17 03:00:00 TS -16.2003 125.919 main 0 0 ______P__P____ -1 -16.1613 125.936 -16.2393 125.902 TC 6 205
1926014S15123 1926 3 SI WA NOT_NAMED 1926-01-17 06:00:00 TS -16.4915 125.763 main 0 0 ______P__P____ -1 -16.4533 125.784 -16.5298 125.742 TC 7 210
1926014S15123 1926 3 SI WA NOT_NAMED 1926-01-17 09:00:00 TS -16.8133 125.555 main 0 0 ______P__P____ -1 -16.7810 125.577 -16.8456 125.533 TC 8 214
1926014S15123 1926 3 SI WA NOT_NAMED 1926-01-17 12:00:00 TS -17.1389 125.304 main 0 0 ______P__P____ -1 -17.1170 125.325 -17.1608 125.283 TC 8 219
1926014S15123 1926 3 SI WA NOT_NAMED 1926-01-17 15:00:00 TS -17.4417 125.022 main 0 0 ______P__P____ -1 -17.4337 125.040 -17.4496 125.004 TC 8 225
1926014S15123 1926 3 SI WA NOT_NAMED 1926-01-17 18:00:00 TS -17.6951 124.720 main 0 0 ______P__P____ -1 -17.7039 124.733 -17.6863 124.706 TC 7 234
1926014S15123 1926 3 SI WA NOT_NAMED 1926-01-17 21:00:00 TS -17.8726 124.409 main 0 0 ______P__P____ -1 -17.9002 124.417 -17.8449 124.401 TC 6 247
1926014S15123 1926 3 SI WA NOT_NAMED 1926-01-18 00:00:00 TS -17.9477 124.101 main 0 0 ______P__O____ -1 -17.9954 124.102 -17.9000 124.100 TC 30 999 6 262
1926014S15123 1926 3 SI WA NOT_NAMED 1926-01-18 01:00:00 TS -17.9263 123.997 999 bom main 0 0 ______O__P____ -1 -18.0000 124.000 999 -17.8526 123.995 TC 7 296
1926014S15123 1926 3 SI WA NOT_NAMED 1926-01-18 03:00:00 TS -17.7992 123.780 main 0 0 ______P__P____ -1 -17.8811 123.781 -17.7174 123.778 TC 8 308
1926014S15123 1926 3 SI WA NOT_NAMED 1926-01-18 06:00:00 TS -17.5161 123.444 main 0 0 ______P__P____ -1 -17.6031 123.443 -17.4292 123.446 TC 9 316
1926014S15123 1926 3 SI WA NOT_NAMED 1926-01-18 09:00:00 TS -17.1486 123.113 main 0 0 ______P__P____ -1 -17.2332 123.107 -17.0641 123.119 TC 10 322
1926014S15123 1926 3 SI WA NOT_NAMED 1926-01-18 12:00:00 TS -16.7268 122.801 main 0 0 ______P__P____ -1 -16.8025 122.789 -16.6510 122.813 TC 10 327
1926014S15123 1926 3 SI WA NOT_NAMED 1926-01-18 15:00:00 TS -16.2807 122.524 main 46 46 ______P__P____ -1 -16.3424 122.505 -16.2190 122.543 TC 10 331
1926014S15123 1926 3 SI WA NOT_NAMED 1926-01-18 18:00:00 TS -15.8407 122.298 main 101 101 ______P__P____ -1 -15.8843 122.271 -15.7971 122.325 TC 9 336
1926014S15123 1926 3 SI WA NOT_NAMED 1926-01-18 21:00:00 TS -15.4371 122.137 main 149 149 ______P__P____ -1 -15.4597 122.101 -15.4144 122.172 TC 8 343
1926014S15123 1926 3 SI WA NOT_NAMED 1926-01-19 00:00:00 TS -15.1000 122.055 main 178 178 ______P__O____ -1 -15.1001 122.010 -15.1000 122.100 TC 30 999 6 351
1926014S15123 1926 3 SI WA NOT_NAMED 1926-01-19 01:00:00 TS -15.0218 122.061 999 bom main 188 188 ______O__P____ -1 -15.0000 122.000 999 -15.0436 122.123 TC 4 23
1926014S15123 1926 3 SI WA NOT_NAMED 1926-01-19 03:00:00 TS -14.9223 122.136 main 198 194 ______P__P____ -1 -14.8936 122.070 -14.9509 122.201 TC 4 52
1926014S15123 1926 3 SI WA NOT_NAMED 1926-01-19 06:00:00 TS -14.8227 122.323 main 200 192 ______P__P____ -1 -14.7879 122.257 -14.8576 122.389 TC 5 71
1926014S15123 1926 3 SI WA NOT_NAMED 1926-01-19 09:00:00 TS -14.7746 122.576 main 192 178 ______P__P____ -1 -14.7377 122.515 -14.8116 122.636 TC 5 84
1926014S15123 1926 3 SI WA NOT_NAMED 1926-01-19 12:00:00 TS -14.7687 122.869 main 178 156 ______P__P____ -1 -14.7330 122.819 -14.8044 122.919 TC 6 92
1926014S15123 1926 3 SI WA NOT_NAMED 1926-01-19 15:00:00 TS -14.7959 123.177 main 156 131 ______P__P____ -1 -14.7640 123.142 -14.8278 123.212 TC 6 98
1926014S15123 1926 3 SI WA NOT_NAMED 1926-01-19 18:00:00 TS -14.8472 123.473 main 131 108 ______P__P____ -1 -14.8209 123.455 -14.8736 123.490 TC 5 102
1926014S15123 1926 3 SI WA NOT_NAMED 1926-01-19 21:00:00 TS -14.9138 123.730 main 108 85 ______P__P____ -1 -14.8939 123.733 -14.9336 123.728 TC 5 108
1926014S15123 1926 3 SI WA NOT_NAMED 1926-01-20 00:00:00 TS -14.9868 123.924 main 85 85 ______P__O____ -1 -14.9736 123.947 -15.0000 123.900 TC 35 998 4 113
1926014S15123 1926 3 SI WA NOT_NAMED 1926-01-20 01:00:00 TS -15.0064 123.953 998 bom main 79 79 ______O__P____ -1 -15.0000 124.000 998 -15.0129 123.906 TC 1 141
1926014S15123 1926 3 SI WA NOT_NAMED 1926-01-20 03:00:00 TS -15.0301 123.953 main 79 77 ______P__P____ -1 -15.0161 124.010 -15.0440 123.896 TC 1 219
1926014S15123 1926 3 SI WA NOT_NAMED 1926-01-20 06:00:00 TS -15.0749 123.901 main 77 77 ______P__P____ -1 -15.0477 123.968 -15.1021 123.833 TC 2 236
1926014S15123 1926 3 SI WA NOT_NAMED 1926-01-20 09:00:00 TS -15.1293 123.798 main 85 85 ______P__P____ -1 -15.0890 123.871 -15.1697 123.725 TC 3 244
1926014S15123 1926 3 SI WA NOT_NAMED 1926-01-20 12:00:00 TS -15.1916 123.659 main 87 87 ______P__P____ -1 -15.1405 123.733 -15.2426 123.586 TC 3 246
1926014S15123 1926 3 SI WA NOT_NAMED 1926-01-20 15:00:00 TS -15.2597 123.499 main 102 102 ______P__P____ -1 -15.2030 123.568 -15.3164 123.430 TC 3 246
1926014S15123 1926 3 SI WA NOT_NAMED 1926-01-20 18:00:00 TS -15.3320 123.330 main 109 99 ______P__P____ -1 -15.2772 123.389 -15.3868 123.270 TC 4 245
1926014S15123 1926 3 SI WA NOT_NAMED 1926-01-20 21:00:00 TS -15.4066 123.167 main 104 101 ______P__P____ -1 -15.3638 123.211 -15.4494 123.123 TC 3 243
1926014S15123 1926 3 SI WA NOT_NAMED 1926-01-21 00:00:00 TS -15.4818 123.024 main 108 108 ______P__O____ -1 -15.4636 123.049 -15.5000 123.000 TC 35 998 3 243
1926014S15123 1926 3 SI WA NOT_NAMED 1926-01-21 01:00:00 TS -15.4933 122.993 998 bom main 108 108 ______O__P____ -1 -15.5000 123.000 998 -15.4867 122.987 TC 1 260
1926014S15123 1926 3 SI WA NOT_NAMED 1926-01-21 03:00:00 TS -15.4937 122.949 main 111 111 ______P__P____ -1 -15.5369 122.931 -15.4505 122.967 TC 1 273
1926014S15123 1926 3 SI WA NOT_NAMED 1926-01-21 06:00:00 TS -15.4890 122.896 main 111 111 ______P__P____ -1 -15.5965 122.836 -15.3815 122.955 TC 1 272
1926014S15123 1926 3 SI WA NOT_NAMED 1926-01-21 09:00:00 TS -15.4899 122.855 main 111 111 ______P__P____ -1 -15.6699 122.753 -15.3099 122.957 TC 1 252
1926014S15123 1926 3 SI WA NOT_NAMED 1926-01-21 12:00:00 TS -15.5097 122.826 main 112 101 ______P__P____ -1 -15.7669 122.683 -15.2525 122.969 TC 1 205
1926014S15123 1926 3 SI WA NOT_NAMED 1926-01-21 15:00:00 TS -15.5617 122.807 main 101 90 ______P__P____ -1 -15.8974 122.629 -15.2261 122.985 TC 2 193
1926014S15123 1926 3 SI WA NOT_NAMED 1926-01-21 18:00:00 TS -15.6592 122.796 main 90 79 ______P__P____ -1 -16.0711 122.594 -15.2473 122.999 TC 3 0
1926014S15123 1926 3 SI WA NOT_NAMED 1926-01-21 21:00:00 TS -15.8155 122.793 main 79 56 ______P__P____ -1 -16.2979 122.581 -15.3330 123.006 TC 4 184
1926014S15123 1926 3 SI WA NOT_NAMED 1926-01-22 00:00:00 TS -16.0439 122.795 main 56 46 ______P__O____ -1 -16.5877 122.591 -15.5000 123.000 TC 40 995 5 175
1926014S15123 1926 3 SI WA NOT_NAMED 1926-01-22 01:00:00 TS -16.1382 122.797 bom main 46 15 ______O__P____ -1 -16.7000 122.600 -15.5765 122.995 TC 6 178
1926014S15123 1926 3 SI WA NOT_NAMED 1926-01-22 03:00:00 TS -16.3578 122.804 main 15 0 ______P__P____ -1 -16.9553 122.630 -15.7603 122.978 TC 7 0
1926014S15123 1926 3 SI WA NOT_NAMED 1926-01-22 06:00:00 TS -16.7358 122.812 main 0 0 ______P__P____ -1 -17.3651 122.684 -16.1065 122.940 TC 8 0
1926014S15123 1926 3 SI WA NOT_NAMED 1926-01-22 07:00:00 TS -16.8694 122.812 bom main 0 0 ______O__P____ -1 -17.5000 122.700 -16.2389 122.924 TC 8 182
1926014S15123 1926 3 SI WA NOT_NAMED 1926-01-22 09:00:00 TS -17.1390 122.804 main 0 0 ______P__P____ -1 -17.7515 122.720 -16.5264 122.888 TC 8 184
1926014S15123 1926 3 SI WA NOT_NAMED 1926-01-22 12:00:00 TS -17.5588 122.781 main 0 0 ______P__P____ -1 -18.1099 122.736 -17.0077 122.825 TC 9 184
1926014S15123 1926 3 SI WA NOT_NAMED 1926-01-22 15:00:00 TS -17.9918 122.745 main 0 0 ______P__P____ -1 -18.4455 122.738 -17.5381 122.753 TC 9 184
1926014S15123 1926 3 SI WA NOT_NAMED 1926-01-22 18:00:00 TS -18.4785 122.706 main 0 0 ______P__P____ -1 -18.7584 122.731 -18.1052 122.673 TC 9 184
1926014S15123 1926 3 SI WA NOT_NAMED 1926-01-22 21:00:00 TS -18.9313 122.675 main 0 0 ______P__P____ -1 -19.0486 122.718 -18.6967 122.588 TC 8 183
1926014S15123 1926 3 SI WA NOT_NAMED 1926-01-23 00:00:00 TS -19.3128 122.663 main 0 0 ______P__O____ -1 -19.3159 122.704 -19.3000 122.500 TC 40 995 7 0
1926014S15123 1926 3 SI WA NOT_NAMED 1926-01-23 01:00:00 NR -19.4000 122.700 bom main 0 0 ______O_______ -1 -19.4000 122.700 TC 5 172
1926014S15123 1926 3 SI WA NOT_NAMED 1926-01-23 03:00:00 NR -19.5606 122.693 main 0 0 ______P_______ -1 -19.5606 122.693 TC 5 0
1926014S15123 1926 3 SI WA NOT_NAMED 1926-01-23 06:00:00 NR -19.7844 122.686 main 0 0 ______P_______ -1 -19.7844 122.686 TC 4 182
1926014S15123 1926 3 SI WA NOT_NAMED 1926-01-23 09:00:00 NR -19.9902 122.682 main 0 0 ______P_______ -1 -19.9902 122.682 TC 4 0
1926014S15123 1926 3 SI WA NOT_NAMED 1926-01-23 12:00:00 NR -20.1807 122.682 main 0 0 ______P_______ -1 -20.1807 122.682 TC 4 177
1926014S15123 1926 3 SI WA NOT_NAMED 1926-01-23 15:00:00 NR -20.3588 122.684 main 0 0 ______P_______ -1 -20.3588 122.684 TC 3 177
1926014S15123 1926 3 SI WA NOT_NAMED 1926-01-23 18:00:00 NR -20.5274 122.687 main 0 0 ______P_______ -1 -20.5274 122.687 TC 3 177
1926014S15123 1926 3 SI WA NOT_NAMED 1926-01-23 21:00:00 NR -20.6894 122.692 main 0 0 ______P_______ -1 -20.6894 122.692 TC 3 0
1926014S15123 1926 3 SI WA NOT_NAMED 1926-01-24 00:00:00 NR -20.8476 122.698 main 0 0 ______P_______ -1 -20.8476 122.698 3 0
1926014S15123 1926 3 SI WA NOT_NAMED 1926-01-24 01:00:00 NR -20.9000 122.700 bom main 0 ______O_______ -1 -20.9000 122.700 3 159

IBTrACS Databaseについて

本データベースは、米国NOAAが公開する1842年以降の世界の熱帯低気圧のベストトラックデータアーカイブInternational Best Track Archive for Climate Stewardship (IBTrACS)を、ウェブで閲覧しやすい形式に変換したものです。

最終更新日:2021-12-03